Khmel'Nyts'Kyi, Ukraine
Current Conditions -  °F | °C
As of 6:00 PM on Wednesday 22 Oct 2014 (Local Time) from UKLN Reporting Station
Overcast Overcast  
Wind Chill: 55°   Ceiling: 1400
Heat Index: 55°   Visibility: 6mi
Dew Point: 50°   Wind: 16mph
Humidity: 82%   Direction: 110°ESE
Pressure: 29.59"   Gusts: NA
Location:  49.42°N, 27°E
Report Text: UKLN 221500Z 11007MPS 9999 OVC014 13/10 Q1002 1519//65 NOSIG
Loading
Personal Weather Stations






























Interactive Weather Map
Tropical Storm Tracking
New forecast layout! Learn more

10-Day Weather Forecast

Advertisements
Track Severe Weather on mobile